Aeroporto :
LOGIN :

Iscrizione | Disclaimer

   EN    FR    IT 

 










Sommario :    VFR   VFR Marginale   IFR   IFR Intensivo   IFR Molto Intensivo
Visibilità : 
Base nubi : 
>= 8 km
>= 3000ft
5 / 8 km
1000 / 3000 ft
1500m / 5 km
500 / 1000 ft
800 / 1500m
200 / 500 ft
< 800m
< 200 ft
Simboli :   Temporali  Nebbia  Neve Forte  Precipitazioni Forti  Vento > 20 kt
SIGMETs :   Varie  Temporali  Ghiacco  Turbolenza  Onda orograficha  Ceneri Vulcaniche






- Altitudine del aeroporto : 63 ft
- Codice IATA : BZM


EHWO - Woensdrecht Airbase

ULTIMO METAR :
  • 230225Z AUTO 08007KT 040V100 6000 -RA FEW027 SCT050 OVC056 06/04 Q0997 RERA REDZ WHT

METARs OBSOLETI :
  • 230207Z AUTO 08009KT 6000 -RA FEW049 BKN060 OVC065 06/04 Q0997 WHT
  • 230158Z AUTO 08010KT 050V110 6000 DZRA FEW029 SCT059 BKN064 06/04 Q0997 WHT
  • 230155Z AUTO 08010KT 050V110 6000 -DZ FEW065 SCT071 BKN077 06/04 Q0997 REDZ WHT
  • 230133Z AUTO 08009KT 7000 -RA BKN059 BKN064 OVC072 06/04 Q0997 WHT
  • 230125Z AUTO 09008KT 060V120 8000 -DZ SCT065 BKN071 OVC077 06/04 Q0998 BLU
  • 230109Z AUTO 09008KT 060V120 8000 DZRA FEW048 BKN058 BKN065 06/04 Q0998 BLU
  • 230055Z AUTO 11008KT 060V160 9999 FEW050 SCT057 BKN064 06/03 Q0998 BLU
  • 230025Z AUTO 08009KT 050V140 9000 BR FEW057 BKN062 BKN070 06/03 Q0998 BLU
  • 222355Z AUTO 08011KT 040V110 9000 BR SCT061 BKN067 BKN081 06/04 Q0998 BLU
  • 222325Z AUTO 09008KT 060V120 9999 FEW071 SCT079 OVC088 06/04 Q0999 BLU

Previsioni scadute.



MetMap, La meteo Aeronautica in un colpo d'occhio ! - Copyright ORBIFLY Dicembre 2007 - Disclaimer

ORBIFLY MET'MAP TEAM :

Programmazione e sviluppo : Alexandra Zaïnal
Concezione e sviluppo : Baudouin d'Aumeries
Co-Programmazione e sviluppo : Marc-Olivier Méhu
Supporto tecnico e logistico : Manuel Goepfert
Aiuto per la traduzione : Arnaldo La Scala

Contatto : metmap@orbifly.com




FONTI E CREDITI :

   NOAA